createdAt,value
2018-03-03T00:00:44.066Z,-5.49
2018-03-03T00:01:44.061Z,-5.53
2018-03-03T00:02:44.066Z,-5.56
2018-03-03T00:03:44.083Z,-5.58
2018-03-03T00:04:44.112Z,-5.70
2018-03-03T00:05:44.119Z,-5.66
2018-03-03T00:06:44.175Z,-5.49
2018-03-03T00:07:44.143Z,-5.52
2018-03-03T00:08:44.155Z,-5.63
2018-03-03T00:09:44.173Z,-5.53
2018-03-03T00:10:44.186Z,-5.63
2018-03-03T00:11:44.196Z,-5.66
2018-03-03T00:12:44.216Z,-5.66
2018-03-03T00:13:44.223Z,-5.67
2018-03-03T00:14:44.239Z,-5.67
2018-03-03T00:15:44.250Z,-5.63
2018-03-03T00:16:44.268Z,-5.63
2018-03-03T00:17:44.276Z,-5.63
2018-03-03T00:18:44.300Z,-5.66
2018-03-03T00:19:44.389Z,-5.55
2018-03-03T00:20:44.324Z,-5.56
2018-03-03T00:21:44.342Z,-5.63
2018-03-03T00:22:44.350Z,-5.66
2018-03-03T00:23:44.370Z,-5.60
2018-03-03T00:24:44.378Z,-5.64
2018-03-03T00:25:44.387Z,-5.70
2018-03-03T00:26:44.407Z,-5.67
2018-03-03T00:27:44.415Z,-5.68
2018-03-03T00:28:44.438Z,-5.70
2018-03-03T00:29:44.458Z,-5.71
2018-03-03T00:30:44.461Z,-5.68
2018-03-03T00:31:44.481Z,-5.82
2018-03-03T00:32:44.496Z,-5.78
2018-03-03T00:33:44.509Z,-5.78
2018-03-03T00:34:44.518Z,-5.81
2018-03-03T00:35:44.535Z,-5.77
2018-03-03T00:36:44.551Z,-5.81
2018-03-03T00:37:44.567Z,-5.78
2018-03-03T00:38:44.570Z,-5.87
2018-03-03T00:39:44.583Z,-5.76
2018-03-03T00:40:44.595Z,-5.76
2018-03-03T00:41:44.616Z,-5.76
2018-03-03T00:42:44.629Z,-5.78
2018-03-03T00:43:44.637Z,-5.82
2018-03-03T00:44:44.668Z,-5.78
2018-03-03T00:45:44.667Z,-5.77
2018-03-03T00:46:44.682Z,-5.82
2018-03-03T00:47:44.692Z,-5.82
2018-03-03T00:48:44.714Z,-5.78
2018-03-03T00:49:44.815Z,-5.73
2018-03-03T00:50:44.744Z,-5.74
2018-03-03T00:51:44.756Z,-5.81
2018-03-03T00:52:44.762Z,-5.70
2018-03-03T00:53:44.779Z,-5.77
2018-03-03T00:54:44.806Z,-5.85
2018-03-03T00:55:44.824Z,-5.87
2018-03-03T00:56:44.844Z,-5.85
2018-03-03T00:57:44.834Z,-5.84
2018-03-03T00:58:44.847Z,-5.85
2018-03-03T00:59:44.875Z,-5.89
2018-03-03T01:00:44.889Z,-5.91
2018-03-03T01:01:44.888Z,-5.84
2018-03-03T01:02:44.901Z,-5.95
2018-03-03T01:03:44.920Z,-6.05
2018-03-03T01:04:44.931Z,-6.05
2018-03-03T01:05:44.941Z,-5.97
2018-03-03T01:06:44.965Z,-6.05
2018-03-03T01:07:44.976Z,-6.05
2018-03-03T01:08:44.985Z,-6.03
2018-03-03T01:09:45.018Z,-6.00
2018-03-03T01:10:45.017Z,-6.05
2018-03-03T01:11:45.039Z,-6.06
2018-03-03T01:12:45.039Z,-6.02
2018-03-03T01:13:45.051Z,-6.05
2018-03-03T01:14:45.085Z,-6.03
2018-03-03T01:15:45.087Z,-6.06
2018-03-03T01:16:45.092Z,-6.03
2018-03-03T01:17:45.112Z,-6.05
2018-03-03T01:18:45.126Z,-6.03
2018-03-03T01:19:45.140Z,-5.97
2018-03-03T01:20:45.162Z,-6.05
2018-03-03T01:21:45.170Z,-6.05
2018-03-03T01:22:45.186Z,-5.97
2018-03-03T01:23:45.193Z,-5.97
2018-03-03T01:24:45.207Z,-6.00
2018-03-03T01:25:45.234Z,-6.00
2018-03-03T01:26:45.230Z,-6.02
2018-03-03T01:27:45.247Z,-6.03
2018-03-03T01:28:45.261Z,-6.00
2018-03-03T01:29:45.277Z,-6.03
2018-03-03T01:30:45.307Z,-6.03
2018-03-03T01:31:45.310Z,-6.06
2018-03-03T01:32:45.328Z,-6.02
2018-03-03T01:33:45.330Z,-5.89
2018-03-03T01:34:45.340Z,-6.03
2018-03-03T01:35:45.357Z,-6.03
2018-03-03T01:36:45.370Z,-6.02
2018-03-03T01:37:45.402Z,-5.99
2018-03-03T01:38:45.416Z,-6.05
2018-03-03T01:39:45.419Z,-6.00
2018-03-03T01:40:45.425Z,-5.97
2018-03-03T01:41:45.458Z,-5.97
2018-03-03T01:42:45.467Z,-5.99
2018-03-03T01:43:45.467Z,-5.97
2018-03-03T01:44:45.485Z,-5.97
2018-03-03T01:45:45.500Z,-6.02
2018-03-03T01:46:45.512Z,-6.07
2018-03-03T01:47:45.539Z,-6.16
2018-03-03T01:48:45.539Z,-6.07
2018-03-03T01:49:45.547Z,-6.12
2018-03-03T01:50:45.560Z,-6.16
2018-03-03T01:51:45.576Z,-6.10
2018-03-03T01:52:45.608Z,-6.27
2018-03-03T01:53:45.617Z,-6.15
2018-03-03T01:54:45.623Z,-6.15
2018-03-03T01:55:45.639Z,-6.21
2018-03-03T01:56:45.655Z,-6.20
2018-03-03T01:57:45.671Z,-6.10
2018-03-03T01:58:45.679Z,-6.27
2018-03-03T01:59:45.700Z,-6.41
2018-03-03T02:00:45.713Z,-6.27
2018-03-03T02:01:45.712Z,-6.24
2018-03-03T02:02:45.729Z,-6.28
2018-03-03T02:03:45.741Z,-6.24
2018-03-03T02:04:45.756Z,-6.36
2018-03-03T02:05:45.770Z,-6.30
2018-03-03T02:06:45.781Z,-6.21
2018-03-03T02:07:45.794Z,-6.24
2018-03-03T02:08:45.816Z,-6.33
2018-03-03T02:09:45.825Z,-6.33
2018-03-03T02:10:45.844Z,-6.31
2018-03-03T02:11:45.849Z,-6.34
2018-03-03T02:12:45.870Z,-6.26
2018-03-03T02:13:45.873Z,-6.33
2018-03-03T02:14:45.900Z,-6.31
2018-03-03T02:15:45.910Z,-6.41
2018-03-03T02:16:45.918Z,-6.36
2018-03-03T02:17:45.935Z,-6.36
2018-03-03T02:18:45.943Z,-6.26
2018-03-03T02:19:45.962Z,-6.31
2018-03-03T02:20:45.972Z,-6.30
2018-03-03T02:21:45.983Z,-6.33
2018-03-03T02:22:46.000Z,-6.39
2018-03-03T02:23:46.010Z,-6.28
2018-03-03T02:24:46.029Z,-6.36
2018-03-03T02:25:46.043Z,-6.36
2018-03-03T02:26:46.058Z,-6.30
2018-03-03T02:27:46.074Z,-6.41
2018-03-03T02:28:46.087Z,-6.44
2018-03-03T02:29:46.103Z,-6.48
2018-03-03T02:30:46.112Z,-6.48
2018-03-03T02:31:46.123Z,-6.46
2018-03-03T02:32:46.140Z,-6.41
2018-03-03T02:33:46.144Z,-6.36
2018-03-03T02:34:46.170Z,-6.45
2018-03-03T02:35:46.175Z,-6.30
2018-03-03T02:36:46.192Z,-6.34
2018-03-03T02:37:46.205Z,-6.33
2018-03-03T02:38:46.215Z,-6.39
2018-03-03T02:39:46.227Z,-6.34
2018-03-03T02:40:46.246Z,-6.36
2018-03-03T02:41:46.258Z,-6.44
2018-03-03T02:42:46.271Z,-6.48
2018-03-03T02:43:46.284Z,-6.58
2018-03-03T02:44:46.313Z,-6.45
2018-03-03T02:45:46.314Z,-6.45
2018-03-03T02:46:46.329Z,-6.45
2018-03-03T02:47:46.340Z,-6.46
2018-03-03T02:48:46.372Z,-6.42
2018-03-03T02:49:46.384Z,-6.41
2018-03-03T02:50:46.382Z,-6.56
2018-03-03T02:51:46.392Z,-6.64
2018-03-03T02:52:46.404Z,-6.49
2018-03-03T02:53:46.425Z,-6.60
2018-03-03T02:54:46.430Z,-6.56
2018-03-03T02:55:46.463Z,-6.49
2018-03-03T02:56:46.472Z,-6.61
2018-03-03T02:57:46.479Z,-6.63
2018-03-03T02:58:46.486Z,-6.60
2018-03-03T02:59:46.505Z,-6.58
2018-03-03T03:00:46.519Z,-6.60
2018-03-03T03:01:46.531Z,-6.58
2018-03-03T03:02:46.665Z,-6.58
2018-03-03T03:03:46.551Z,-6.56
2018-03-03T03:04:46.668Z,-6.44
2018-03-03T03:05:46.582Z,-6.54
2018-03-03T03:06:46.609Z,-6.61
2018-03-03T03:07:46.609Z,-6.51
2018-03-03T03:08:46.629Z,-6.51
2018-03-03T03:09:46.633Z,-6.63
2018-03-03T03:10:46.647Z,-6.51
2018-03-03T03:11:46.659Z,-6.63
2018-03-03T03:12:46.670Z,-6.61
2018-03-03T03:13:46.696Z,-6.52
2018-03-03T03:14:46.700Z,-6.60
2018-03-03T03:15:46.714Z,-6.61
2018-03-03T03:16:46.731Z,-6.52
2018-03-03T03:17:47.440Z,-6.49
2018-03-03T03:18:46.752Z,-6.46
2018-03-03T03:19:46.769Z,-6.60
2018-03-03T03:20:46.783Z,-6.64
2018-03-03T03:21:46.845Z,-6.67
2018-03-03T03:22:46.805Z,-6.68
2018-03-03T03:23:46.819Z,-6.76
2018-03-03T03:24:46.832Z,-6.68
2018-03-03T03:25:46.844Z,-6.75
2018-03-03T03:26:46.857Z,-6.82
2018-03-03T03:27:46.878Z,-6.79
2018-03-03T03:28:46.908Z,-6.81
2018-03-03T03:29:46.898Z,-6.70
2018-03-03T03:30:46.919Z,-6.73
2018-03-03T03:31:46.936Z,-6.75
2018-03-03T03:32:46.943Z,-6.75
2018-03-03T03:33:46.949Z,-6.81
2018-03-03T03:34:46.963Z,-6.81
2018-03-03T03:35:46.975Z,-6.85
2018-03-03T03:36:46.995Z,-6.89
2018-03-03T03:37:47.001Z,-6.84
2018-03-03T03:38:47.017Z,-6.79
2018-03-03T03:39:47.035Z,-6.96
2018-03-03T03:40:47.045Z,-7.03
2018-03-03T03:41:47.060Z,-6.86
2018-03-03T03:42:47.069Z,-6.89
2018-03-03T03:43:47.096Z,-6.88
2018-03-03T03:44:47.097Z,-6.96
2018-03-03T03:45:47.108Z,-6.91
2018-03-03T03:46:47.121Z,-6.95
2018-03-03T03:47:47.141Z,-6.92
2018-03-03T03:48:47.159Z,-6.89
2018-03-03T03:49:47.166Z,-6.92
2018-03-03T03:50:47.177Z,-6.89
2018-03-03T03:51:47.185Z,-6.97
2018-03-03T03:52:47.208Z,-6.86
2018-03-03T03:53:47.220Z,-6.89
2018-03-03T03:54:47.228Z,-7.02
2018-03-03T03:55:47.242Z,-7.05
2018-03-03T03:56:47.263Z,-7.06
2018-03-03T03:57:47.268Z,-7.15
2018-03-03T03:58:47.282Z,-7.07
2018-03-03T03:59:47.293Z,-7.21
2018-03-03T04:00:47.306Z,-7.05
2018-03-03T04:01:47.320Z,-7.07
2018-03-03T04:02:47.334Z,-7.13
2018-03-03T04:03:47.356Z,-7.10
2018-03-03T04:04:47.368Z,-7.03
2018-03-03T04:05:47.377Z,-7.00
2018-03-03T04:06:47.385Z,-6.95
2018-03-03T04:07:47.399Z,-7.05
2018-03-03T04:08:47.425Z,-7.09
2018-03-03T04:09:47.434Z,-7.06
2018-03-03T04:10:47.440Z,-7.09
2018-03-03T04:11:47.449Z,-7.10
2018-03-03T04:12:47.461Z,-7.07
2018-03-03T04:13:47.480Z,-7.05
2018-03-03T04:14:47.490Z,-7.03
2018-03-03T04:15:47.510Z,-7.13
2018-03-03T04:16:47.524Z,-7.07
2018-03-03T04:17:47.533Z,-7.14
2018-03-03T04:18:47.544Z,-7.15
2018-03-03T04:19:47.554Z,-7.14
2018-03-03T04:20:47.571Z,-7.27
2018-03-03T04:21:47.588Z,-7.24
2018-03-03T04:22:47.598Z,-7.27
2018-03-03T04:23:47.607Z,-7.17
2018-03-03T04:24:47.625Z,-7.27
2018-03-03T04:25:47.637Z,-7.21
2018-03-03T04:26:47.647Z,-7.17
2018-03-03T04:27:47.691Z,-7.17
2018-03-03T04:28:47.675Z,-7.21
2018-03-03T04:29:47.685Z,-7.18
2018-03-03T04:30:47.699Z,-7.27
2018-03-03T04:31:47.713Z,-7.20
2018-03-03T04:32:47.738Z,-7.21
2018-03-03T04:33:47.755Z,-7.23
2018-03-03T04:34:47.755Z,-7.18
2018-03-03T04:35:47.825Z,-7.17
2018-03-03T04:36:47.818Z,-7.23
2018-03-03T04:37:47.789Z,-7.27
2018-03-03T04:38:47.807Z,-7.25
2018-03-03T04:39:47.827Z,-7.21
2018-03-03T04:40:47.827Z,-7.41
2018-03-03T04:41:47.846Z,-7.39
2018-03-03T04:42:47.856Z,-7.44
2018-03-03T04:43:47.866Z,-7.35
2018-03-03T04:44:47.891Z,-7.30
2018-03-03T04:45:47.898Z,-7.24
2018-03-03T04:46:47.919Z,-7.25
2018-03-03T04:47:47.928Z,-7.44
2018-03-03T04:48:48.008Z,-7.45
2018-03-03T04:49:47.993Z,-7.38
2018-03-03T04:50:47.961Z,-7.39
2018-03-03T04:51:47.989Z,-7.32
2018-03-03T04:52:47.983Z,-7.41
2018-03-03T04:53:47.999Z,-7.41
2018-03-03T04:54:48.019Z,-7.45
2018-03-03T04:55:48.032Z,-7.41
2018-03-03T04:56:48.050Z,-7.44
2018-03-03T04:57:48.048Z,-7.42
2018-03-03T04:58:48.063Z,-7.45
2018-03-03T04:59:48.083Z,-7.45
2018-03-03T05:00:48.091Z,-7.50
2018-03-03T05:01:48.112Z,-7.44
2018-03-03T05:02:48.117Z,-7.39
2018-03-03T05:03:48.155Z,-7.52
2018-03-03T05:04:48.140Z,-7.35
2018-03-03T05:05:48.149Z,-7.53
2018-03-03T05:06:48.181Z,-7.46
2018-03-03T05:07:48.181Z,-7.44
2018-03-03T05:08:48.201Z,-7.50
2018-03-03T05:09:48.208Z,-7.39
2018-03-03T05:10:48.225Z,-7.60
2018-03-03T05:11:48.233Z,-7.52
2018-03-03T05:12:48.243Z,-7.46
2018-03-03T05:13:48.253Z,-7.59
2018-03-03T05:14:48.276Z,-7.45
2018-03-03T05:15:48.283Z,-7.63
2018-03-03T05:16:48.295Z,-7.57
2018-03-03T05:17:48.303Z,-7.55
2018-03-03T05:18:48.323Z,-7.55
2018-03-03T05:19:48.334Z,-7.59
2018-03-03T05:20:48.350Z,-7.60
2018-03-03T05:21:48.454Z,-7.59
2018-03-03T05:22:48.369Z,-7.55
2018-03-03T05:23:48.388Z,-7.52
2018-03-03T05:24:48.410Z,-7.59
2018-03-03T05:25:48.428Z,-7.62
2018-03-03T05:26:48.424Z,-7.50
2018-03-03T05:27:48.436Z,-7.46
2018-03-03T05:28:48.447Z,-7.55
2018-03-03T05:29:48.463Z,-7.57
2018-03-03T05:30:48.474Z,-7.50
2018-03-03T05:31:48.495Z,-7.62
2018-03-03T05:32:48.507Z,-7.57
2018-03-03T05:33:48.522Z,-7.67
2018-03-03T05:34:48.520Z,-7.66
2018-03-03T05:35:48.538Z,-7.66
2018-03-03T05:36:48.670Z,-7.66
2018-03-03T05:37:48.569Z,-7.57
2018-03-03T05:38:48.613Z,-7.55
2018-03-03T05:39:48.589Z,-7.62
2018-03-03T05:40:48.607Z,-7.56
2018-03-03T05:41:48.647Z,-7.64
2018-03-03T05:42:48.631Z,-7.57
2018-03-03T05:43:48.645Z,-7.59
2018-03-03T05:44:48.650Z,-7.60
2018-03-03T05:45:48.669Z,-7.66
2018-03-03T05:46:48.690Z,-7.63
2018-03-03T05:47:48.695Z,-7.74
2018-03-03T05:48:48.712Z,-7.70
2018-03-03T05:49:48.714Z,-7.66
2018-03-03T05:50:48.731Z,-7.70
2018-03-03T05:51:48.817Z,-7.64
2018-03-03T05:52:48.753Z,-7.63
2018-03-03T05:53:48.777Z,-7.56
2018-03-03T05:54:48.777Z,-7.60
2018-03-03T05:55:48.791Z,-7.60
2018-03-03T05:56:48.802Z,-7.53
2018-03-03T05:57:48.825Z,-7.60
2018-03-03T05:58:48.827Z,-7.57
2018-03-03T05:59:48.848Z,-7.63
2018-03-03T06:00:48.859Z,-7.53
2018-03-03T06:01:48.871Z,-7.70
2018-03-03T06:02:48.878Z,-7.67
2018-03-03T06:03:48.903Z,-7.70
2018-03-03T06:04:48.905Z,-7.71
2018-03-03T06:05:48.915Z,-7.66
2018-03-03T06:06:48.936Z,-7.71
2018-03-03T06:07:48.950Z,-7.59
2018-03-03T06:08:49.045Z,-7.62
2018-03-03T06:09:48.977Z,-7.67
2018-03-03T06:10:48.989Z,-7.63
2018-03-03T06:11:49.001Z,-7.64
2018-03-03T06:12:49.012Z,-7.64
2018-03-03T06:13:49.024Z,-7.59
2018-03-03T06:14:49.037Z,-7.59
2018-03-03T06:15:49.063Z,-7.60
2018-03-03T06:16:49.076Z,-7.52
2018-03-03T06:17:49.082Z,-7.55
2018-03-03T06:18:49.090Z,-7.56
2018-03-03T06:19:49.113Z,-7.50
2018-03-03T06:20:49.111Z,-7.53
2018-03-03T06:21:49.123Z,-7.55
2018-03-03T06:22:49.136Z,-7.44
2018-03-03T06:23:49.148Z,-7.46
2018-03-03T06:24:49.159Z,-7.50
2018-03-03T06:25:49.206Z,-7.50
2018-03-03T06:26:49.199Z,-7.59
2018-03-03T06:27:49.203Z,-7.64
2018-03-03T06:28:49.217Z,-7.64
2018-03-03T06:29:49.230Z,-7.64
2018-03-03T06:30:49.242Z,-7.84
2018-03-03T06:31:49.267Z,-7.71
2018-03-03T06:32:49.265Z,-7.67
2018-03-03T06:33:49.283Z,-7.64
2018-03-03T06:34:49.292Z,-7.56
2018-03-03T06:35:49.308Z,-7.64
2018-03-03T06:36:49.313Z,-7.52
2018-03-03T06:37:49.344Z,-7.59
2018-03-03T06:38:49.348Z,-7.55
2018-03-03T06:39:49.356Z,-7.60
2018-03-03T06:40:49.424Z,-7.55
2018-03-03T06:41:49.380Z,-7.53
2018-03-03T06:42:49.392Z,-7.41
2018-03-03T06:43:49.404Z,-7.39
2018-03-03T06:44:49.418Z,-7.41
2018-03-03T06:45:49.433Z,-7.60
2018-03-03T06:46:49.444Z,-7.48
2018-03-03T06:47:49.459Z,-7.38
2018-03-03T06:48:49.469Z,-7.45
2018-03-03T06:49:49.480Z,-7.42
2018-03-03T06:50:49.515Z,-7.42
2018-03-03T06:51:49.527Z,-7.36
2018-03-03T06:52:49.523Z,-7.27
2018-03-03T06:53:49.582Z,-7.23
2018-03-03T06:54:49.548Z,-7.28
2018-03-03T06:55:49.569Z,-7.41
2018-03-03T06:56:49.574Z,-7.28
2018-03-03T06:57:49.579Z,-7.27
2018-03-03T06:58:49.602Z,-7.35
2018-03-03T06:59:49.605Z,-7.41
2018-03-03T07:00:49.630Z,-7.34
2018-03-03T07:01:49.635Z,-7.42
2018-03-03T07:02:49.658Z,-7.32
2018-03-03T07:03:49.665Z,-7.36
2018-03-03T07:04:49.685Z,-7.32
2018-03-03T07:06:49.708Z,-7.23
2018-03-03T07:07:49.729Z,-7.21
2018-03-03T07:08:49.736Z,-7.27
2018-03-03T07:09:49.747Z,-7.21
2018-03-03T07:10:49.765Z,-7.20
2018-03-03T07:11:49.768Z,-7.23
2018-03-03T07:12:49.781Z,-7.14
2018-03-03T07:13:49.800Z,-7.23
2018-03-03T07:14:49.802Z,-7.14
2018-03-03T07:15:49.818Z,-7.15
2018-03-03T07:16:49.838Z,-7.21
2018-03-03T07:17:49.848Z,-7.21
2018-03-03T07:18:49.861Z,-7.17
2018-03-03T07:19:49.874Z,-7.10
2018-03-03T07:20:49.877Z,-7.09
2018-03-03T07:21:49.896Z,-7.10
2018-03-03T07:22:49.921Z,-7.10
2018-03-03T07:23:49.923Z,-7.07
2018-03-03T07:24:49.942Z,-7.03
2018-03-03T07:25:49.946Z,-6.99
2018-03-03T07:26:49.970Z,-6.88
2018-03-03T07:27:49.980Z,-6.79
2018-03-03T07:28:49.989Z,-6.96
2018-03-03T07:29:50.002Z,-6.92
2018-03-03T07:30:50.013Z,-6.92
2018-03-03T07:31:50.027Z,-6.91
2018-03-03T07:32:50.045Z,-6.92
2018-03-03T07:33:50.051Z,-6.95
2018-03-03T07:34:50.066Z,-6.96
2018-03-03T07:35:50.078Z,-6.95
2018-03-03T07:36:50.090Z,-7.07
2018-03-03T07:37:50.118Z,-7.03
2018-03-03T07:38:50.240Z,-6.92
2018-03-03T07:39:50.147Z,-6.85
2018-03-03T07:40:50.157Z,-6.75
2018-03-03T07:41:50.154Z,-6.91
2018-03-03T07:42:50.173Z,-6.81
2018-03-03T07:43:50.190Z,-6.84
2018-03-03T07:44:50.198Z,-6.91
2018-03-03T07:45:50.210Z,-6.79
2018-03-03T07:46:50.220Z,-6.79
2018-03-03T07:47:50.244Z,-6.73
2018-03-03T07:48:50.247Z,-6.82
2018-03-03T07:49:50.262Z,-6.73
2018-03-03T07:50:50.277Z,-6.78
2018-03-03T07:51:50.285Z,-6.68
2018-03-03T07:52:50.302Z,-6.70
2018-03-03T07:53:50.314Z,-6.75
2018-03-03T07:54:50.330Z,-6.73
2018-03-03T07:55:50.423Z,-6.60
2018-03-03T07:56:50.352Z,-6.66
2018-03-03T07:57:50.379Z,-6.61
2018-03-03T07:58:50.375Z,-6.68
2018-03-03T07:59:50.389Z,-6.64
2018-03-03T08:00:50.416Z,-6.51
2018-03-03T08:01:50.415Z,-6.49
2018-03-03T08:02:50.433Z,-6.56
2018-03-03T08:03:50.445Z,-6.61
2018-03-03T08:04:50.460Z,-6.44
2018-03-03T08:05:50.474Z,-6.60
2018-03-03T08:06:50.481Z,-6.56
2018-03-03T08:07:50.493Z,-6.46
2018-03-03T08:08:50.512Z,-6.54
2018-03-03T08:09:50.520Z,-6.56
2018-03-03T08:10:51.390Z,-6.54
2018-03-03T08:11:50.558Z,-6.45
2018-03-03T08:12:50.628Z,-6.45
2018-03-03T08:13:50.586Z,-6.44
2018-03-03T08:14:50.600Z,-6.39
2018-03-03T08:15:50.599Z,-6.27
2018-03-03T08:16:50.623Z,-6.28
2018-03-03T08:17:50.643Z,-6.28
2018-03-03T08:18:50.646Z,-6.15
2018-03-03T08:19:50.662Z,-6.16
2018-03-03T08:20:50.673Z,-6.15
2018-03-03T08:21:50.687Z,-6.20
2018-03-03T08:22:50.694Z,-6.10
2018-03-03T08:23:50.710Z,-6.13
2018-03-03T08:24:50.723Z,-6.03
2018-03-03T08:25:50.743Z,-6.05
2018-03-03T08:26:50.745Z,-5.91
2018-03-03T08:27:50.764Z,-5.84
2018-03-03T08:28:50.794Z,-5.82
2018-03-03T08:29:50.810Z,-5.63
2018-03-03T08:30:50.808Z,-5.63
2018-03-03T08:31:50.819Z,-5.52
2018-03-03T08:32:50.826Z,-5.55
2018-03-03T08:33:50.839Z,-5.55
2018-03-03T08:34:50.853Z,-5.43
2018-03-03T08:35:50.871Z,-5.39
2018-03-03T08:36:50.883Z,-5.45
2018-03-03T08:37:50.902Z,-5.45
2018-03-03T08:38:50.908Z,-5.39
2018-03-03T08:39:50.927Z,-5.39
2018-03-03T08:40:51.014Z,-5.50
2018-03-03T08:41:51.016Z,-5.70
2018-03-03T08:42:51.251Z,-5.64
2018-03-03T08:43:50.974Z,-5.70
2018-03-03T08:44:51.021Z,-5.68
2018-03-03T08:45:51.023Z,-5.68
2018-03-03T08:46:51.036Z,-5.66
2018-03-03T08:47:51.076Z,-5.68
2018-03-03T08:48:51.051Z,-5.58
2018-03-03T08:49:51.062Z,-5.60
2018-03-03T08:50:51.084Z,-5.52
2018-03-03T08:51:51.091Z,-5.52
2018-03-03T08:52:51.105Z,-5.52
2018-03-03T08:53:51.131Z,-5.39
2018-03-03T08:54:51.160Z,-5.39
2018-03-03T08:55:51.156Z,-5.45
2018-03-03T08:56:51.169Z,-5.39
2018-03-03T08:57:51.179Z,-5.45
2018-03-03T08:58:51.198Z,-5.37
2018-03-03T08:59:51.196Z,-5.38
2018-03-03T09:00:51.232Z,-5.49
2018-03-03T09:01:51.239Z,-5.46
2018-03-03T09:02:51.241Z,-5.45
2018-03-03T09:03:51.257Z,-5.46
2018-03-03T09:04:51.272Z,-5.43
2018-03-03T09:05:51.279Z,-5.45
2018-03-03T09:06:51.308Z,-5.46
2018-03-03T09:07:51.309Z,-5.43
2018-03-03T09:08:51.324Z,-5.45
2018-03-03T09:09:51.398Z,-5.48
2018-03-03T09:10:51.360Z,-5.55
2018-03-03T09:11:51.365Z,-5.39
2018-03-03T09:12:51.375Z,-5.52
2018-03-03T09:13:51.392Z,-5.41
2018-03-03T09:14:51.411Z,-5.32
2018-03-03T09:15:51.430Z,-5.37
2018-03-03T09:16:51.459Z,-5.41
2018-03-03T09:17:51.454Z,-5.25
2018-03-03T09:18:51.474Z,-5.23
2018-03-03T09:19:51.482Z,-5.12
2018-03-03T09:20:51.495Z,-5.05
2018-03-03T09:21:51.509Z,-4.97
2018-03-03T09:22:51.524Z,-4.98
2018-03-03T09:23:51.533Z,-4.95
2018-03-03T09:24:51.559Z,-5.00
2018-03-03T09:25:51.564Z,-5.06
2018-03-03T09:26:51.580Z,-5.10
2018-03-03T09:27:51.588Z,-5.00
2018-03-03T09:28:51.614Z,-5.05
2018-03-03T09:29:51.623Z,-4.83
2018-03-03T09:30:51.643Z,-4.87
2018-03-03T09:31:51.653Z,-4.81
2018-03-03T09:32:51.662Z,-4.76
2018-03-03T09:33:51.689Z,-4.62
2018-03-03T09:34:51.703Z,-4.56
2018-03-03T09:35:51.718Z,-4.53
2018-03-03T09:36:51.731Z,-4.53
2018-03-03T09:37:51.726Z,-4.53
2018-03-03T09:38:51.742Z,-4.41
2018-03-03T09:39:51.762Z,-4.37
2018-03-03T09:40:51.778Z,-4.31
2018-03-03T09:41:51.810Z,-4.27
2018-03-03T09:42:51.825Z,-4.16
2018-03-03T09:43:51.825Z,-4.26
2018-03-03T09:44:51.832Z,-4.17
2018-03-03T09:45:51.853Z,-3.88
2018-03-03T09:46:51.867Z,-3.69
2018-03-03T09:47:51.889Z,-3.68
2018-03-03T09:48:51.889Z,-3.58
2018-03-03T09:49:52.884Z,-3.47
2018-03-03T09:50:51.933Z,-3.41
2018-03-03T09:51:51.936Z,-3.36
2018-03-03T09:52:52.949Z,-3.22
2018-03-03T09:53:51.969Z,-3.17
2018-03-03T09:54:51.982Z,-3.25
2018-03-03T09:55:52.069Z,-3.20
2018-03-03T09:56:52.018Z,-3.05
2018-03-03T09:57:52.036Z,-2.89
2018-03-03T09:58:52.953Z,-2.72
2018-03-03T09:59:52.063Z,-2.66
2018-03-03T10:00:52.084Z,-2.48
2018-03-03T10:01:58.934Z,-2.20
2018-03-03T10:02:52.109Z,-1.48
2018-03-03T10:03:52.122Z,-0.54
2018-03-03T10:04:52.142Z,0.49
2018-03-03T10:05:52.175Z,0.85
2018-03-03T10:06:52.172Z,0.96
2018-03-03T10:07:52.191Z,1.95
2018-03-03T10:08:52.204Z,2.10
2018-03-03T10:09:52.228Z,1.82
2018-03-03T10:10:52.241Z,2.62
2018-03-03T10:11:52.260Z,3.46
2018-03-03T10:12:52.288Z,4.22
2018-03-03T10:13:52.345Z,4.90
2018-03-03T10:14:52.348Z,5.23
2018-03-03T10:15:52.338Z,5.67
2018-03-03T10:16:52.358Z,5.28
2018-03-03T10:17:52.370Z,5.84
2018-03-03T10:18:52.409Z,6.32
2018-03-03T10:19:52.418Z,6.13
2018-03-03T10:20:52.444Z,6.13
2018-03-03T10:21:52.555Z,6.38
2018-03-03T10:22:52.491Z,6.64
2018-03-03T10:23:52.512Z,7.04
2018-03-03T10:24:52.541Z,7.21
2018-03-03T10:25:52.570Z,7.26
2018-03-03T10:26:52.596Z,7.05
2018-03-03T10:27:52.617Z,7.08
2018-03-03T10:28:52.637Z,7.62
2018-03-03T10:29:52.668Z,8.36
2018-03-03T10:30:52.698Z,8.90
2018-03-03T10:31:52.726Z,8.59
2018-03-03T10:32:52.745Z,8.57
2018-03-03T10:33:52.766Z,9.08
2018-03-03T10:34:52.804Z,8.74
2018-03-03T10:35:52.827Z,7.88
2018-03-03T10:36:52.878Z,8.13
2018-03-03T10:37:52.961Z,8.52
2018-03-03T10:38:52.910Z,8.46
2018-03-03T10:39:52.934Z,9.05
2018-03-03T10:40:53.039Z,9.59
2018-03-03T10:41:52.999Z,9.48
2018-03-03T10:42:53.013Z,8.99
2018-03-03T10:43:53.075Z,8.61
2018-03-03T10:44:53.065Z,8.68
2018-03-03T10:45:53.095Z,8.64
2018-03-03T10:46:53.142Z,8.77
2018-03-03T10:47:53.152Z,8.78
2018-03-03T10:48:53.190Z,7.93
2018-03-03T10:49:53.221Z,8.49
2018-03-03T10:50:53.241Z,7.95
2018-03-03T10:51:53.286Z,7.88
2018-03-03T10:52:53.296Z,8.35
2018-03-03T10:53:53.327Z,8.61
2018-03-03T10:54:53.352Z,9.12
2018-03-03T10:55:53.390Z,8.39
2018-03-03T10:56:53.428Z,8.93
2018-03-03T10:57:53.454Z,9.55
2018-03-03T10:58:53.475Z,9.55
2018-03-03T10:59:53.514Z,8.92
2018-03-03T11:00:53.541Z,9.29
2018-03-03T11:01:53.567Z,8.78
2018-03-03T11:02:53.595Z,8.60
2018-03-03T11:03:53.623Z,8.78
2018-03-03T11:04:53.670Z,9.37
2018-03-03T11:05:53.690Z,9.69
2018-03-03T11:06:53.713Z,9.88
2018-03-03T11:07:53.758Z,10.41
2018-03-03T11:08:53.780Z,10.79
2018-03-03T11:09:53.807Z,10.83
2018-03-03T11:10:53.844Z,10.83
2018-03-03T11:11:53.889Z,10.00
2018-03-03T11:12:53.898Z,10.07
2018-03-03T11:13:53.934Z,9.88
2018-03-03T11:14:53.960Z,9.63
2018-03-03T11:15:53.987Z,9.82
2018-03-03T11:16:54.072Z,9.39
2018-03-03T11:17:54.076Z,9.74
2018-03-03T11:18:54.098Z,9.81
2018-03-03T11:19:54.127Z,9.39
2018-03-03T11:20:54.138Z,8.92
2018-03-03T11:21:54.178Z,9.33
2018-03-03T11:22:54.213Z,9.85
2018-03-03T11:23:54.276Z,10.06
2018-03-03T11:24:54.265Z,10.02
2018-03-03T11:25:54.292Z,9.64
2018-03-03T11:26:54.334Z,9.58
2018-03-03T11:27:54.366Z,9.76
2018-03-03T11:28:54.401Z,9.85
2018-03-03T11:29:54.423Z,10.00
2018-03-03T11:30:54.474Z,8.32
2018-03-03T11:31:54.479Z,8.69
2018-03-03T11:32:54.527Z,8.68
2018-03-03T11:33:54.551Z,9.05
2018-03-03T11:34:54.590Z,9.36
2018-03-03T11:35:54.598Z,9.58
2018-03-03T11:36:54.630Z,9.15
2018-03-03T11:37:54.666Z,9.24
2018-03-03T11:38:54.694Z,8.81
2018-03-03T11:39:54.738Z,8.06
2018-03-03T11:40:54.761Z,7.36
2018-03-03T11:41:54.808Z,6.75
2018-03-03T11:42:54.831Z,6.56
2018-03-03T11:43:54.865Z,6.50
2018-03-03T11:44:54.888Z,6.49
2018-03-03T11:45:54.903Z,6.65
2018-03-03T11:46:54.928Z,6.78
2018-03-03T11:47:54.945Z,7.11
2018-03-03T11:48:54.985Z,7.51
2018-03-03T11:49:55.017Z,7.87
2018-03-03T11:50:55.033Z,7.78
2018-03-03T11:51:55.061Z,7.69
2018-03-03T11:52:55.113Z,8.02
2018-03-03T11:53:55.120Z,8.16
2018-03-03T11:54:55.170Z,8.09
2018-03-03T11:55:55.185Z,7.99
2018-03-03T11:56:55.211Z,7.23
2018-03-03T11:57:55.234Z,7.66
2018-03-03T11:58:55.264Z,8.09
2018-03-03T11:59:55.277Z,8.56
2018-03-03T12:00:55.315Z,9.55
2018-03-03T12:01:55.347Z,8.06
2018-03-03T12:02:55.366Z,9.03
2018-03-03T12:03:55.418Z,8.86
2018-03-03T12:04:55.425Z,9.00
2018-03-03T12:05:55.452Z,9.56
2018-03-03T12:06:55.502Z,9.87
2018-03-03T12:07:55.517Z,10.31
2018-03-03T12:08:55.588Z,10.38
2018-03-03T12:09:55.565Z,10.82
2018-03-03T12:10:55.595Z,10.98
2018-03-03T12:11:55.623Z,10.82
2018-03-03T12:12:55.675Z,10.92
2018-03-03T12:13:55.701Z,10.90
2018-03-03T12:14:55.721Z,11.02
2018-03-03T12:15:55.751Z,11.27
2018-03-03T12:16:55.770Z,11.23
2018-03-03T12:17:55.816Z,11.16
2018-03-03T12:18:55.846Z,11.59
2018-03-03T12:19:55.886Z,11.53
2018-03-03T12:20:55.936Z,11.59
2018-03-03T12:21:55.928Z,12.03
2018-03-03T12:22:55.960Z,12.05
2018-03-03T12:23:55.999Z,11.85
2018-03-03T12:24:56.027Z,11.16
2018-03-03T12:25:56.052Z,10.41
2018-03-03T12:26:56.081Z,11.07
2018-03-03T12:27:56.120Z,11.01
2018-03-03T12:28:56.166Z,8.99
2018-03-03T12:29:56.168Z,7.69
2018-03-03T12:30:56.201Z,6.83
2018-03-03T12:31:56.231Z,5.92
2018-03-03T12:32:56.923Z,5.47
2018-03-03T12:33:56.300Z,4.71
2018-03-03T12:34:56.312Z,4.46
2018-03-03T12:35:56.335Z,4.30
2018-03-03T12:36:56.364Z,4.03
2018-03-03T12:37:56.399Z,2.73
2018-03-03T12:38:56.423Z,2.47
2018-03-03T12:39:56.457Z,2.57
2018-03-03T12:40:56.463Z,2.15
2018-03-03T12:41:56.495Z,2.03
2018-03-03T12:42:56.518Z,2.04
2018-03-03T12:43:56.540Z,2.18
2018-03-03T12:44:56.572Z,2.21
2018-03-03T12:45:57.425Z,1.95
2018-03-03T12:46:56.607Z,1.75
2018-03-03T12:47:56.628Z,1.63
2018-03-03T12:48:56.660Z,1.74
2018-03-03T12:49:56.679Z,1.64
2018-03-03T12:50:56.688Z,1.57
2018-03-03T12:51:56.710Z,1.49
2018-03-03T12:52:56.755Z,1.10
2018-03-03T12:53:56.758Z,0.88
2018-03-03T12:54:56.791Z,0.94
2018-03-03T12:55:56.870Z,1.13
2018-03-03T12:56:56.882Z,1.18
2018-03-03T12:57:57.487Z,1.16
2018-03-03T12:58:56.878Z,1.13